Weather observations for the past three days for
Tillamook, Tillamook Airport
Imperial (Metric)
Date Time (pdt) Wind (mph) Vis. (mi.) Weather Sky Cond. Temperature (ºF) Relative Humidity Wind Chill (°F) Heat Index (°F) Pressure Precipitation (in)
Air Dwpt 6 hour altimeter (in) sea level (mb) 1 hr 3 hr 6 hr
Max. Min.
09 16:55 SW 6 G 13 10.00 Fair CLR 66.2 57.2 73% 30.04 0.0
09 16:35 NW 8 G 15 10.00 Fair CLR 66.2 53.6 64% 30.04 0.0
09 16:15 NW 13 10.00 Fair CLR 68 53.6 60% 30.04 0.0
09 15:55 NW 10 10.00 Fair CLR 68 53.6 60% 30.04 0.0
09 15:35 NW 12 10.00 Fair CLR 69.8 53.6 57% 30.04 0.0
09 15:15 NW 9 10.00 Fair CLR 69.8 53.6 57% 30.05 0.0
09 14:55 N 9 10.00 Fair CLR 69.8 53.6 57% 30.05 0.0
09 14:35 NW 7 G 15 10.00 Fair CLR 69.8 53.6 57% 30.07 0.0
09 14:15 Vrbl 5 G 12 10.00 Fair CLR 69.8 53.6 57% 30.08 0.0
09 13:55 NW 8 10.00 Fair CLR 69.8 53.6 57% 30.08 0.0
09 13:35 Calm 10.00 Fair CLR 69.8 55.4 60% 30.09 0.0
09 13:15 NW 9 10.00 Fair CLR 68 55.4 64% 30.09 0.0
09 12:55 NW 7 10.00 Fair CLR 68 53.6 60% 30.1 0.0
09 12:35 NW 6 10.00 Fair CLR 68 53.6 60% 30.11 0.0
09 12:15 NW 6 10.00 Fair CLR 66.2 55.4 68% 30.11 0.0
09 11:55 NW 7 9.00 Fair CLR 66.2 55.4 68% 30.12 0.0
09 11:35 Vrbl 5 10.00 Fair CLR 64.4 53.6 68% 30.12 0.0
09 11:15 NW 7 10.00 Fair CLR 62.6 53.6 73% 30.12 0.0
09 10:55 NW 7 10.00 Fair CLR 62.6 53.6 73% 30.13 0.0
09 10:35 Calm 10.00 Light Rain CLR 60.8 53.6 77% 30.13 0.0
09 10:15 NW 3 10.00 Fair CLR 59 53.6 82% 30.13 0.0
09 09:55 Calm 10.00 Fair CLR 59 53.6 82% 30.13 0.0
09 09:35 Calm 10.00 Fair CLR 57.2 51.8 82% 30.13 0.0
09 09:15 Calm 10.00 Fair CLR 55.4 51.8 88% 30.13 0.0
09 08:55 Calm 10.00 Fair CLR 53.6 51.8 94% 30.13 0.0
09 08:35 Calm 10.00 Fair CLR 51.8 51.8 100% 30.14 0.0
09 08:15 Calm 10.00 Fair CLR 50 50 100% 30.15 0.0
09 07:55 Calm 9.00 Fair CLR 48.2 48.2 100% 30.15 0.0
09 07:35 SE 3 9.00 Fair CLR 46.4 46.4 100% 30.16 0.0
09 07:15 SE 5 6.00 Fog/Mist CLR 44.6 44.6 100% 43 30.17 0.0
09 06:55 SE 5 0.25 Unknown Precip Fog BKN002 42.8 42.8 100% 41 30.16 0.0
09 06:35 Calm 0.15 Fog BKN001 41 41 100% 30.16 0.0
09 06:15 SW 3 0.75 Fog/Mist OVC001 41 41 100% 30.16 0.0
09 05:55 Calm 0.25 Light Rain Fog OVC001 41 41 100% 30.17 0.0
09 05:35 Calm 0.25 Fog OVC001 41 41 100% 30.17 0.0
09 05:15 Calm 9.00 Mostly Cloudy BKN002 BKN006 41 41 100% 30.17 0.0
09 04:55 Calm 10.00 Overcast OVC002 42.8 42.8 100% 30.17 0.0
09 04:35 Calm 9.00 Overcast OVC002 42.8 42.8 100% 30.18 0.0
09 04:15 Calm 9.00 Mostly Cloudy BKN002 42.8 42.8 100% 30.18 0.0
09 03:55 Calm 9.00 A Few Clouds FEW002 42.8 42.8 100% 30.18 0.0
09 03:35 SE 5 4.00 Fog/Mist SCT002 44.6 44.6 100% 43 30.18 0.0
09 03:15 S 3 0.25 Unknown Precip Fog BKN001 44.6 44.6 100% 30.19 0.0
09 02:55 S 5 10.00 Mostly Cloudy BKN001 42.8 42.8 100% 41 30.2 0.0
09 02:35 Calm 4.00 Fog/Mist OVC001 44.6 44.6 100% 30.2 0.0
09 02:15 Calm 1.00 Fog/Mist OVC001 44.6 44.6 100% 30.2 0.0
09 01:55 Calm 9.00 Mostly Cloudy BKN002 44.6 44.6 100% 30.2 0.0
09 01:35 Calm 8.00 Partly Cloudy SCT003 SCT038 46.4 46.4 100% 30.2 0.0
09 01:15 Calm 7.00 Partly Cloudy SCT012 SCT038 44.6 44.6 100% 30.21 0.0
09 00:55 Calm 10.00 Mostly Cloudy FEW004 BKN012 46.4 46.4 100% 30.2 0.0
09 00:35 Calm 8.00 Mostly Cloudy BKN012 46.4 46.4 100% 30.21 0.0
09 00:15 Calm 10.00 Mostly Cloudy BKN012 48.2 48.2 100% 30.21 0.0
08 23:55 Calm 10.00 Partly Cloudy SCT014 50 50 100% 30.21 0.0
08 23:35 Calm 10.00 Mostly Cloudy BKN013 50 50 100% 30.22 0.0
08 23:15 Calm 10.00 Mostly Cloudy BKN013 51.8 50 94% 30.22 0.0
08 22:55 Calm 10.00 Mostly Cloudy BKN015 50 50 100% 30.22 0.0
08 22:35 Calm 10.00 Mostly Cloudy BKN015 51.8 50 94% 30.22 0.0
08 22:15 Calm 10.00 Mostly Cloudy BKN016 51.8 51.8 100% 30.22 0.0
08 21:55 Calm 10.00 Mostly Cloudy BKN017 BKN034 53.6 51.8 94% 30.21 0.0
08 21:35 Calm 10.00 Mostly Cloudy FEW018 BKN034 55.4 51.8 88% 30.22 0.0
08 21:15 Calm 10.00 Overcast OVC034 55.4 51.8 88% 30.21 0.0
08 20:55 Calm 10.00 Overcast OVC034 55.4 51.8 88% 30.21 0.0
08 20:35 W 3 10.00 Overcast OVC035 57.2 51.8 82% 30.21 0.0
08 20:15 Calm 10.00 Overcast OVC035 57.2 51.8 82% 30.21 0.0
08 19:55 W 5 10.00 Overcast OVC036 57.2 51.8 82% 30.21 0.0
08 19:35 W 5 10.00 Overcast BKN036 BKN045 OVC050 57.2 51.8 82% 30.21 0.0
08 19:15 W 6 10.00 Mostly Cloudy FEW044 BKN050 57.2 51.8 82% 30.21 0.0
08 18:55 W 8 10.00 Mostly Cloudy BKN044 59 51.8 77% 30.21 0.0
08 18:35 W 6 10.00 Overcast FEW022 OVC044 59 51.8 77% 30.21 0.0
08 18:15 W 6 10.00 Overcast FEW027 OVC043 59 51.8 77% 30.21 0.0
08 17:55 W 5 10.00 Overcast BKN027 OVC040 59 51.8 77% 30.21 0.0
08 17:35 W 7 10.00 Overcast OVC027 59 51.8 77% 30.22 0.0
08 17:15 W 9 10.00 Overcast OVC029 59 51.8 77% 30.22 0.0
08 16:55 W 12 10.00 Overcast OVC030 59 50 72% 30.22 0.0
08 16:35 W 8 G 15 10.00 Overcast BKN031 BKN041 OVC055 60.8 50 68% 30.22 0.0
08 15:55 W 12 10.00 Mostly Cloudy FEW026 SCT031 BKN046 60.8 50 68% 30.22 0.0
08 15:35 NW 8 G 14 10.00 Mostly Cloudy FEW026 SCT032 BKN047 62.6 50 64% 30.22 0.0
08 15:15 W 9 10.00 Overcast BKN033 BKN039 OVC049 62.6 50 64% 30.21 0.0
08 14:55 NW 13 10.00 Overcast BKN032 OVC050 60.8 50 68% 30.21 0.0
08 14:35 NW 5 10.00 Overcast OVC031 60.8 48.2 63% 30.21 0.0
08 14:15 S 3 10.00 Overcast OVC028 59 48.2 68% 30.22 0.0
08 13:55 W 3 10.00 Overcast OVC028 59 48.2 68% 30.21 0.0
08 13:35 NW 6 10.00 Overcast OVC029 59 48.2 68% 30.21 0.0
08 13:15 Vrbl 3 10.00 Overcast OVC030 59 46.4 63% 30.21 0.0
08 12:35 Vrbl 8 10.00 Overcast BKN029 OVC034 57.2 46.4 67% 30.2 0.0
08 12:15 SW 3 10.00 Overcast OVC030 57.2 46.4 67% 30.21 0.0
08 11:55 SW 6 10.00 Overcast OVC028 55.4 46.4 72% 30.21 0.0
08 11:35 SW 7 10.00 Overcast OVC030 55.4 46.4 72% 30.21 0.0
08 11:15 S 8 10.00 Overcast BKN028 OVC033 55.4 46.4 72% 30.2 0.0
08 10:35 SW 8 10.00 Overcast FEW027 OVC034 55.4 46.4 72% 30.2 0.0
08 10:15 S 8 10.00 Overcast FEW025 OVC034 55.4 48.2 77% 30.19 0.0
08 09:55 SW 6 10.00 Overcast BKN026 OVC033 53.6 46.4 77% 30.19 0.0
08 09:35 Vrbl 7 10.00 Overcast SCT028 OVC034 53.6 48.2 82% 30.19 0.0
08 09:15 S 5 10.00 Overcast OVC028 53.6 48.2 82% 30.18 0.0
08 08:55 Vrbl 5 10.00 Overcast OVC030 53.6 48.2 82% 30.18 0.0
08 08:35 S 5 10.00 Overcast OVC029 53.6 48.2 82% 30.17 0.0
08 08:15 Vrbl 5 10.00 Overcast OVC029 53.6 50 88% 30.16 0.0
08 07:55 Calm 10.00 Overcast OVC028 51.8 50 94% 30.15 0.0
08 07:35 Calm 10.00 Overcast OVC029 51.8 50 94% 30.14 0.0
08 07:15 Calm 10.00 Overcast OVC027 50 48.2 94% 30.14 0.0
08 06:35 Calm 10.00 Overcast OVC029 50 48.2 94% 30.14 0.0
08 06:15 E 3 10.00 Overcast OVC030 48.2 48.2 100% 30.15 0.0
08 05:55 Calm 9.00 Overcast OVC029 50 48.2 94% 30.15 0.0
08 05:35 Calm 10.00 Overcast OVC029 48.2 48.2 100% 30.14 0.0
08 05:15 Calm 10.00 Overcast OVC028 48.2 48.2 100% 30.14 0.0
08 04:55 Calm 10.00 Overcast OVC028 48.2 48.2 100% 30.14 0.0
08 04:35 Calm 10.00 Overcast OVC028 48.2 48.2 100% 30.14 0.0
08 04:15 Calm 10.00 Overcast OVC028 48.2 48.2 100% 30.13 0.0
08 03:55 SE 3 10.00 Overcast OVC026 48.2 48.2 100% 30.13 0.0
08 03:35 Calm 10.00 Overcast OVC024 48.2 46.4 94% 30.12 0.0
08 03:15 Calm 10.00 Overcast OVC023 48.2 46.4 94% 30.11 0.0
08 02:55 Calm 10.00 Overcast OVC023 46.4 46.4 100% 30.11 0.0
08 02:35 SE 3 10.00 Overcast OVC021 46.4 46.4 100% 30.11 0.0
08 02:15 Calm 10.00 Overcast OVC020 46.4 46.4 100% 30.1 0.0
08 01:55 Calm 10.00 Overcast OVC019 46.4 46.4 100% 30.1 0.0
08 01:35 Calm 10.00 Overcast OVC019 46.4 46.4 100% 30.09 0.0
08 01:15 SE 3 10.00 Overcast OVC019 44.6 44.6 100% 30.09 0.0
08 00:55 Calm 10.00 Overcast OVC020 44.6 44.6 100% 30.1 0.0
08 00:35 SE 5 10.00 Mostly Cloudy BKN018 44.6 44.6 100% 43 30.09 0.0
08 00:15 Calm 10.00 Mostly Cloudy BKN018 44.6 44.6 100% 30.09 0.0
07 23:55 Calm 10.00 Mostly Cloudy BKN017 46.4 44.6 93% 30.09 0.0
07 23:35 Calm 10.00 Mostly Cloudy BKN016 44.6 44.6 100% 30.09 0.0
07 23:15 Calm 10.00 Mostly Cloudy BKN016 46.4 44.6 93% 30.09 0.0
07 22:55 Calm 10.00 Mostly Cloudy BKN016 46.4 46.4 100% 30.08 0.0
07 22:35 S 5 10.00 Mostly Cloudy BKN016 48.2 46.4 94% 47 30.09 0.0
07 22:15 Calm 10.00 Partly Cloudy SCT018 48.2 46.4 94% 30.09 0.0
07 21:55 SE 5 9.00 Mostly Cloudy BKN018 48.2 46.4 94% 47 30.09 0.0
07 21:35 Calm 10.00 Mostly Cloudy BKN018 48.2 46.4 94% 30.09 0.0
07 21:15 S 3 10.00 A Few Clouds FEW018 50 46.4 88% 30.09 0.0
07 20:55 Calm 10.00 Fair CLR 51.8 46.4 82% 30.08 0.0
07 20:35 W 5 10.00 Fair CLR 51.8 46.4 82% 30.08 0.0
07 20:15 NW 6 10.00 Fair CLR 51.8 46.4 82% 30.07 0.0
07 19:55 NW 6 10.00 Fair CLR 51.8 46.4 82% 30.07 0.0
07 19:35 NW 6 10.00 Fair CLR 53.6 48.2 82% 30.08 0.0
07 19:15 NW 5 10.00 Fair CLR 55.4 48.2 77% 30.08 0.0
07 18:55 NW 6 10.00 Fair CLR 55.4 48.2 77% 30.08 0.0
07 18:35 NW 9 10.00 Fair CLR 55.4 48.2 77% 30.08 0.0
07 18:15 NW 9 10.00 Fair CLR 57.2 48.2 72% 30.08 0.0
07 17:55 NW 9 10.00 Fair CLR 57.2 48.2 72% 30.09 0.0
07 17:35 NW 10 10.00 Fair CLR 59 46.4 63% 30.09 0.0
07 17:15 NW 9 10.00 Fair CLR 59 48.2 68% 30.09 0.0
07 16:55 NW 8 9.00 Fair CLR 59 46.4 63% 30.09 0.0
07 16:35 NW 10 10.00 Fair CLR 59 48.2 68% 30.09 0.0
07 16:15 NW 10 G 16 10.00 Fair CLR 59 48.2 68% 30.1 0.0
07 15:55 NW 10 10.00 Fair CLR 60.8 48.2 63% 30.11 0.0
07 15:35 NW 12 10.00 Fair CLR 60.8 48.2 63% 30.11 0.0
07 15:15 NW 10 G 16 10.00 Fair CLR 60.8 48.2 63% 30.11 0.0
07 14:55 NW 12 10.00 Fair CLR 60.8 48.2 63% 30.12 0.0
07 14:35 NW 13 10.00 Fair CLR 60.8 48.2 63% 30.12 0.0
07 14:15 NW 12 10.00 Fair CLR 60.8 46.4 59% 30.12 0.0
07 13:55 NW 10 G 17 10.00 Fair CLR 60.8 46.4 59% 30.11 0.0
07 13:35 NW 9 10.00 Fair CLR 60.8 46.4 59% 30.12 0.0
07 13:15 NW 10 10.00 Fair CLR 60.8 48.2 63% 30.12 0.0
07 12:55 NW 9 10.00 Fair CLR 60.8 48.2 63% 30.12 0.0
07 12:35 NW 10 10.00 Fair CLR 60.8 46.4 59% 30.12 0.0
07 12:15 NW 8 G 14 10.00 Fair CLR 60.8 46.4 59% 30.13 0.0
07 11:55 NW 8 10.00 Fair CLR 60.8 46.4 59% 30.14 0.0
07 11:35 Vrbl 3 10.00 Fair CLR 59 46.4 63% 30.14 0.0
07 11:15 Calm 10.00 Fair CLR 57.2 46.4 67% 30.15 0.0
07 10:55 Vrbl 3 10.00 Partly Cloudy SCT026 57.2 46.4 67% 30.15 0.0
07 10:35 Calm 10.00 Mostly Cloudy BKN027 55.4 46.4 72% 30.16 0.0
07 10:15 Calm 10.00 Overcast OVC027 55.4 46.4 72% 30.16 0.0
07 09:55 Vrbl 5 10.00 Overcast OVC024 55.4 46.4 72% 30.17 0.0
07 09:35 NW 5 10.00 Overcast OVC022 53.6 46.4 77% 30.17 0.0
07 09:15 NW 5 10.00 Overcast OVC021 53.6 46.4 77% 30.17 0.0
07 08:55 NW 5 10.00 Overcast OVC022 51.8 44.6 77% 30.17 0.0
07 08:35 Calm 10.00 Overcast OVC023 51.8 44.6 77% 30.17 0.0
07 08:15 Calm 10.00 Overcast OVC023 51.8 44.6 77% 30.17 0.0
07 07:55 Calm 10.00 Overcast OVC023 51.8 44.6 77% 30.17 0.0
07 07:35 W 3 10.00 Overcast OVC023 51.8 46.4 82% 30.17 0.0
07 07:15 Calm 10.00 Overcast OVC022 50 46.4 88% 30.17 0.0
07 06:55 Calm 10.00 Overcast OVC021 50 46.4 88% 30.16 0.0
07 06:35 N 6 10.00 Overcast OVC021 50 48.2 94% 48 30.16 0.0
07 06:15 Calm 10.00 Overcast OVC021 50 46.4 88% 30.16 0.0
07 05:55 Calm 10.00 Overcast OVC021 50 46.4 88% 30.15 0.0
07 05:35 Calm 10.00 Overcast OVC022 50 48.2 94% 30.15 0.0
07 05:15 Calm 10.00 Overcast OVC025 50 50 100% 30.16 0.0
07 04:55 Calm 10.00 Overcast OVC026 50 50 100% 30.17 0.0
07 04:35 Calm 10.00 Overcast OVC028 51.8 48.2 88% 30.17 0.0
07 04:15 W 3 7.00 Overcast OVC027 51.8 48.2 88% 30.17 0.0
07 03:55 Calm 9.00 Overcast OVC027 51.8 48.2 88% 30.17 0.0
07 03:35 Calm 10.00 Overcast OVC028 51.8 48.2 88% 30.18 0.0
07 03:15 Calm 10.00 Overcast OVC028 51.8 48.2 88% 30.18 0.0
07 02:55 Calm 10.00 Overcast OVC028 51.8 48.2 88% 30.18 0.0
07 02:35 Calm 10.00 Overcast OVC028 53.6 50 88% 30.19 0.0
07 02:15 Calm 10.00 Overcast OVC028 53.6 50 88% 30.19 0.0
07 01:55 W 3 10.00 Overcast OVC027 53.6 50 88% 30.2 0.0
07 01:35 NW 3 10.00 Overcast OVC027 53.6 50 88% 30.2 0.0
07 01:15 NW 6 10.00 Overcast OVC027 53.6 50 88% 30.2 0.0
07 00:55 Calm 10.00 Overcast OVC026 53.6 51.8 94% 30.2 0.0
07 00:15 Calm 10.00 Overcast OVC025 53.6 50 88% 30.19 0.0
06 23:55 NW 3 10.00 Overcast OVC024 55.4 48.2 77% 30.19 0.0
06 23:35 NW 6 10.00 Overcast OVC022 53.6 48.2 82% 30.2 0.0
06 23:15 NW 8 10.00 Overcast OVC022 55.4 50 82% 30.2 0.0
06 22:55 NW 7 10.00 Overcast OVC022 55.4 50 82% 30.2 0.0
06 22:35 NW 5 10.00 Overcast OVC021 53.6 51.8 94% 30.21 0.0
06 22:15 NW 6 10.00 Overcast OVC021 53.6 53.6 100% 30.21 0.0
06 21:55 NW 7 10.00 Overcast OVC021 53.6 53.6 100% 30.21 0.0
06 21:35 NW 7 10.00 Overcast OVC023 53.6 51.8 94% 30.21 0.0
06 21:15 NW 8 10.00 Overcast OVC024 55.4 51.8 88% 30.21 0.0
06 20:35 NW 10 10.00 Overcast OVC025 55.4 51.8 88% 30.2 0.0
06 20:15 NW 8 10.00 Overcast OVC024 55.4 51.8 88% 30.2 0.0
06 19:55 NW 12 10.00 Overcast OVC023 55.4 51.8 88% 30.19 0.0
06 19:35 NW 9 10.00 Overcast FEW017 OVC024 55.4 53.6 94% 30.19 0.0
06 19:15 NW 9 10.00 Overcast BKN017 OVC023 55.4 53.6 94% 30.19 0.0
06 18:55 NW 7 10.00 Overcast BKN020 OVC024 55.4 53.6 94% 30.19 0.0
06 18:35 NW 6 10.00 Overcast SCT017 OVC024 55.4 53.6 94% 30.2 0.0
06 18:15 NW 8 10.00 Overcast BKN016 OVC024 55.4 53.6 94% 30.2 0.0
06 17:55 NW 7 10.00 Unknown Precip BKN015 OVC021 55.4 53.6 94% 30.2 0.0
06 17:35 NW 8 10.00 Overcast FEW015 OVC021 55.4 53.6 94% 30.2 0.0
06 17:15 NW 9 10.00 Overcast BKN014 OVC022 55.4 53.6 94% 30.2 0.0
Date Time (pdt) Wind (mph) Vis. (mi.) Weather Sky Cond. Air Dwpt Max. Min. Relative Humidity Wind Chill (°F) Heat Index (°F) altimeter (in) sea level (mb) 1 hr 3 hr 6 hr
6 hour
Temperature (ºF) Pressure Precipitation (in)